Main page
METAR-TAF:

METAR-TAF

Airports :

Gdańsk Lech Wałęsa Airport

Gdańsk, Poland

latitude: 54-23N, longitude: 018-28E, elevation: 135 m

Current weather observation

The report was made 31 minutes ago, at 00:00 UTC
Wind 3 kt from the West
Temperature 8°C
Humidity 93%
Pressure 1027 hPa
Visibility 10 km or more
no clouds below 1500 m and no cumulonimbus

METAR: EPGD 240000Z 28003KT CAVOK 08/07 Q1027

Time: 02:31 (00:31 UTC)

Forecast

The report was made 1 hour and 1 minutes ago, at 23:30 UTC
Forecast valid from 24 at 00 UTC to 24 at 24 UTC
Wind 3 kt from the North/Northeast
Visibility 10 km or more
no clouds below 1500 m and no cumulonimbus
Becoming
from 24 at 07 UTC to 24 at 10 UTC
Wind 13 kt from the Northeast

TAF: EPGD 232330Z 2400/2424 03003KT CAVOK BECMG 2407/2410 04013KT

Weather observations and forecasts of more than 4000 airports (METAR and TAF reports).

The available stations are represented by yellow and red dots on the map.

Hover mouse over dot to see the name of the station.

Then click to see weather observations and forecasts.

To change the map : click on the green buttons with a black cross to zoom in, on the green button with a dash to zoom out, or on the green arrows for adjacent maps.


METAR-TAF: